createdAt,value
2016-06-21T00:00:14.552Z,965.86
2016-06-21T00:01:14.553Z,965.85
2016-06-21T00:02:14.561Z,965.9
2016-06-21T00:03:14.575Z,965.89
2016-06-21T00:04:14.586Z,965.91
2016-06-21T00:05:14.600Z,965.93
2016-06-21T00:06:14.605Z,965.9
2016-06-21T00:07:14.638Z,965.93
2016-06-21T00:08:14.646Z,965.93
2016-06-21T00:09:14.639Z,965.94
2016-06-21T00:10:14.644Z,965.91
2016-06-21T00:11:14.660Z,965.94
2016-06-21T00:12:14.661Z,965.93
2016-06-21T00:13:14.673Z,965.95
2016-06-21T00:14:14.687Z,965.95
2016-06-21T00:15:14.699Z,965.95
2016-06-21T00:16:14.704Z,965.98
2016-06-21T00:17:14.730Z,965.96
2016-06-21T00:18:14.723Z,966.01
2016-06-21T00:19:14.735Z,965.99
2016-06-21T00:20:14.747Z,966.04
2016-06-21T00:21:14.753Z,966.02
2016-06-21T00:22:14.768Z,966.02
2016-06-21T00:23:14.785Z,966.04
2016-06-21T00:24:14.791Z,966.03
2016-06-21T00:25:14.798Z,966.01
2016-06-21T00:26:14.816Z,966.06
2016-06-21T00:27:14.816Z,966.04
2016-06-21T00:28:14.829Z,966.05
2016-06-21T00:29:14.838Z,966.06
2016-06-21T00:30:14.846Z,966.05
2016-06-21T00:31:14.861Z,966.09
2016-06-21T00:32:14.871Z,966.02
2016-06-21T00:33:14.877Z,966.05
2016-06-21T00:34:14.891Z,966.02
2016-06-21T00:35:14.909Z,966.07
2016-06-21T00:36:14.911Z,966.06
2016-06-21T00:37:14.927Z,966.07
2016-06-21T00:38:14.932Z,966.07
2016-06-21T00:39:14.941Z,966.03
2016-06-21T00:40:14.959Z,966.06
2016-06-21T00:41:14.960Z,966.07
2016-06-21T00:42:14.975Z,966.11
2016-06-21T00:43:14.979Z,966.1
2016-06-21T00:44:14.989Z,966.1
2016-06-21T00:45:15.001Z,966.13
2016-06-21T00:46:15.013Z,966.12
2016-06-21T00:47:15.022Z,966.11
2016-06-21T00:48:15.031Z,966.24
2016-06-21T00:49:15.049Z,966.22
2016-06-21T00:50:15.054Z,966.25
2016-06-21T00:51:15.062Z,966.24
2016-06-21T00:52:15.069Z,966.28
2016-06-21T00:53:15.083Z,966.26
2016-06-21T00:54:15.086Z,966.26
2016-06-21T00:55:15.102Z,966.3
2016-06-21T00:56:15.111Z,966.28
2016-06-21T00:57:15.121Z,966.29
2016-06-21T00:58:15.132Z,966.31
2016-06-21T00:59:15.149Z,966.27
2016-06-21T01:00:15.155Z,966.28
2016-06-21T01:01:15.159Z,966.26
2016-06-21T01:02:15.175Z,966.26
2016-06-21T01:03:15.183Z,966.21
2016-06-21T01:04:15.196Z,966.21
2016-06-21T01:05:15.205Z,966.24
2016-06-21T01:06:15.227Z,966.19
2016-06-21T01:07:15.223Z,966.22
2016-06-21T01:08:15.235Z,966.21
2016-06-21T01:09:15.242Z,966.2
2016-06-21T01:10:15.259Z,966.28
2016-06-21T01:11:15.266Z,966.27
2016-06-21T01:12:15.297Z,966.28
2016-06-21T01:13:15.283Z,966.27
2016-06-21T01:14:15.298Z,966.33
2016-06-21T01:15:15.311Z,966.29
2016-06-21T01:16:15.326Z,966.29
2016-06-21T01:17:15.326Z,966.3
2016-06-21T01:18:15.345Z,966.27
2016-06-21T01:19:15.339Z,966.28
2016-06-21T01:20:15.352Z,966.28
2016-06-21T01:21:15.374Z,966.32
2016-06-21T01:22:15.391Z,966.31
2016-06-21T01:23:15.378Z,966.32
2016-06-21T01:24:15.392Z,966.3
2016-06-21T01:25:15.406Z,966.36
2016-06-21T01:26:15.417Z,966.31
2016-06-21T01:27:15.429Z,966.35
2016-06-21T01:28:15.434Z,966.35
2016-06-21T01:29:15.442Z,966.33
2016-06-21T01:30:15.449Z,966.37
2016-06-21T01:31:15.463Z,966.38
2016-06-21T01:32:15.475Z,966.36
2016-06-21T01:33:15.487Z,966.38
2016-06-21T01:34:15.489Z,966.38
2016-06-21T01:35:15.506Z,966.36
2016-06-21T01:36:15.514Z,966.32
2016-06-21T01:37:15.526Z,966.36
2016-06-21T01:38:15.537Z,966.34
2016-06-21T01:39:15.544Z,966.39
2016-06-21T01:40:15.555Z,966.37
2016-06-21T01:41:15.567Z,966.4
2016-06-21T01:42:15.575Z,966.4
2016-06-21T01:43:15.593Z,966.45
2016-06-21T01:44:15.599Z,966.41
2016-06-21T01:45:15.613Z,966.44
2016-06-21T01:46:15.610Z,966.43
2016-06-21T01:47:15.630Z,966.44
2016-06-21T01:48:15.639Z,966.48
2016-06-21T01:49:15.656Z,966.48
2016-06-21T01:50:15.655Z,966.43
2016-06-21T01:51:15.670Z,966.46
2016-06-21T01:52:15.681Z,966.5
2016-06-21T01:53:15.684Z,966.44
2016-06-21T01:54:15.697Z,966.41
2016-06-21T01:55:15.711Z,966.41
2016-06-21T01:56:15.726Z,966.35
2016-06-21T01:57:15.726Z,966.34
2016-06-21T01:58:15.736Z,966.34
2016-06-21T01:59:15.748Z,966.32
2016-06-21T02:00:15.758Z,966.29
2016-06-21T02:01:15.767Z,966.29
2016-06-21T02:02:15.777Z,966.25
2016-06-21T02:03:15.783Z,966.28
2016-06-21T02:04:15.798Z,966.22
2016-06-21T02:05:15.809Z,966.23
2016-06-21T02:06:15.820Z,966.24
2016-06-21T02:07:15.830Z,966.3
2016-06-21T02:08:15.839Z,966.28
2016-06-21T02:09:15.846Z,966.26
2016-06-21T02:10:15.860Z,966.29
2016-06-21T02:11:15.871Z,966.28
2016-06-21T02:12:15.882Z,966.25
2016-06-21T02:13:15.887Z,966.26
2016-06-21T02:14:15.898Z,966.26
2016-06-21T02:15:15.914Z,966.27
2016-06-21T02:16:15.927Z,966.26
2016-06-21T02:17:15.933Z,966.26
2016-06-21T02:18:15.943Z,966.31
2016-06-21T02:19:15.953Z,966.36
2016-06-21T02:20:15.957Z,966.37
2016-06-21T02:21:15.971Z,966.36
2016-06-21T02:22:15.975Z,966.34
2016-06-21T02:23:15.992Z,966.33
2016-06-21T02:24:16.001Z,966.34
2016-06-21T02:25:16.010Z,966.3
2016-06-21T02:26:16.019Z,966.31
2016-06-21T02:27:16.030Z,966.26
2016-06-21T02:28:16.039Z,966.26
2016-06-21T02:29:16.053Z,966.27
2016-06-21T02:30:16.064Z,966.25
2016-06-21T02:31:16.076Z,966.25
2016-06-21T02:32:16.082Z,966.24
2016-06-21T02:33:16.095Z,966.23
2016-06-21T02:34:16.100Z,966.17
2016-06-21T02:35:16.111Z,966.24
2016-06-21T02:36:16.126Z,966.2
2016-06-21T02:37:16.131Z,966.22
2016-06-21T02:38:16.142Z,966.24
2016-06-21T02:39:16.154Z,966.27
2016-06-21T02:40:16.159Z,966.26
2016-06-21T02:41:16.172Z,966.26
2016-06-21T02:42:16.186Z,966.27
2016-06-21T02:43:16.189Z,966.24
2016-06-21T02:44:16.206Z,966.29
2016-06-21T02:45:16.217Z,966.28
2016-06-21T02:46:16.217Z,966.34
2016-06-21T02:47:16.241Z,966.35
2016-06-21T02:48:16.246Z,966.32
2016-06-21T02:49:16.246Z,966.36
2016-06-21T02:50:16.263Z,966.29
2016-06-21T02:51:16.277Z,966.34
2016-06-21T02:52:16.281Z,966.31
2016-06-21T02:53:16.296Z,966.34
2016-06-21T02:54:16.303Z,966.32
2016-06-21T02:55:16.314Z,966.31
2016-06-21T02:56:16.327Z,966.31
2016-06-21T02:57:16.334Z,966.29
2016-06-21T02:58:16.351Z,966.28
2016-06-21T02:59:16.356Z,966.31
2016-06-21T03:00:16.362Z,966.32
2016-06-21T03:01:16.382Z,966.31
2016-06-21T03:02:16.388Z,966.31
2016-06-21T03:03:16.392Z,966.29
2016-06-21T03:04:16.407Z,966.28
2016-06-21T03:05:16.414Z,966.3
2016-06-21T03:06:16.424Z,966.33
2016-06-21T03:07:16.441Z,966.28
2016-06-21T03:08:16.455Z,966.31
2016-06-21T03:09:16.458Z,966.33
2016-06-21T03:10:16.461Z,966.33
2016-06-21T03:11:16.474Z,966.33
2016-06-21T03:12:16.484Z,966.31
2016-06-21T03:13:16.504Z,966.3
2016-06-21T03:14:16.513Z,966.31
2016-06-21T03:15:16.520Z,966.35
2016-06-21T03:16:16.532Z,966.38
2016-06-21T03:17:16.539Z,966.32
2016-06-21T03:18:16.550Z,966.31
2016-06-21T03:19:16.565Z,966.31
2016-06-21T03:20:16.569Z,966.32
2016-06-21T03:21:16.576Z,966.36
2016-06-21T03:22:16.589Z,966.36
2016-06-21T03:23:16.600Z,966.35
2016-06-21T03:24:16.607Z,966.37
2016-06-21T03:25:16.619Z,966.41
2016-06-21T03:26:16.630Z,966.41
2016-06-21T03:27:16.638Z,966.47
2016-06-21T03:28:16.650Z,966.51
2016-06-21T03:29:16.657Z,966.48
2016-06-21T03:30:16.679Z,966.5
2016-06-21T03:31:16.676Z,966.52
2016-06-21T03:32:16.683Z,966.54
2016-06-21T03:33:16.701Z,966.59
2016-06-21T03:34:16.708Z,966.59
2016-06-21T03:35:16.725Z,966.59
2016-06-21T03:36:16.727Z,966.61
2016-06-21T03:37:16.737Z,966.61
2016-06-21T03:38:16.749Z,966.58
2016-06-21T03:39:16.760Z,966.58
2016-06-21T03:40:16.767Z,966.57
2016-06-21T03:41:16.777Z,966.6
2016-06-21T03:42:16.790Z,966.6
2016-06-21T03:43:16.796Z,966.58
2016-06-21T03:44:16.804Z,966.59
2016-06-21T03:45:16.820Z,966.58
2016-06-21T03:46:16.823Z,966.57
2016-06-21T03:47:16.836Z,966.59
2016-06-21T03:48:16.852Z,966.57
2016-06-21T03:49:16.858Z,966.62
2016-06-21T03:50:16.869Z,966.6
2016-06-21T03:51:16.882Z,966.63
2016-06-21T03:52:16.890Z,966.63
2016-06-21T03:53:16.898Z,966.64
2016-06-21T03:54:16.911Z,966.65
2016-06-21T03:55:16.926Z,966.61
2016-06-21T03:56:16.939Z,966.65
2016-06-21T03:57:16.941Z,966.62
2016-06-21T03:58:16.951Z,966.66
2016-06-21T03:59:16.963Z,966.64
2016-06-21T04:00:16.971Z,966.65
2016-06-21T04:01:16.977Z,966.65
2016-06-21T04:02:16.985Z,966.69
2016-06-21T04:03:17.000Z,966.69
2016-06-21T04:04:17.009Z,966.74
2016-06-21T04:05:17.023Z,966.71
2016-06-21T04:06:17.030Z,966.74
2016-06-21T04:07:17.042Z,966.73
2016-06-21T04:08:17.054Z,966.8
2016-06-21T04:09:17.058Z,966.79
2016-06-21T04:10:17.076Z,966.81
2016-06-21T04:11:17.080Z,966.82
2016-06-21T04:12:17.094Z,966.83
2016-06-21T04:13:17.114Z,966.86
2016-06-21T04:14:17.113Z,966.89
2016-06-21T04:15:17.130Z,966.92
2016-06-21T04:16:17.131Z,966.9
2016-06-21T04:17:17.143Z,966.91
2016-06-21T04:18:17.146Z,966.96
2016-06-21T04:19:17.161Z,966.97
2016-06-21T04:20:17.174Z,967.01
2016-06-21T04:21:17.177Z,967.01
2016-06-21T04:22:17.194Z,967.03
2016-06-21T04:23:17.201Z,967.05
2016-06-21T04:24:17.208Z,967.11
2016-06-21T04:25:17.222Z,967.1
2016-06-21T04:26:17.232Z,967.17
2016-06-21T04:27:17.272Z,967.22
2016-06-21T04:28:17.259Z,967.25
2016-06-21T04:29:17.263Z,967.23
2016-06-21T04:30:17.273Z,967.24
2016-06-21T04:31:17.289Z,967.22
2016-06-21T04:32:17.297Z,967.23
2016-06-21T04:33:17.319Z,967.24
2016-06-21T04:34:17.318Z,967.23
2016-06-21T04:35:17.345Z,967.29
2016-06-21T04:36:17.332Z,967.29
2016-06-21T04:37:17.342Z,967.29
2016-06-21T04:38:17.350Z,967.25
2016-06-21T04:39:17.357Z,967.3
2016-06-21T04:40:17.372Z,967.3
2016-06-21T04:41:17.386Z,967.31
2016-06-21T04:42:17.395Z,967.22
2016-06-21T04:43:17.403Z,967.24
2016-06-21T04:44:17.417Z,967.23
2016-06-21T04:45:17.427Z,967.19
2016-06-21T04:46:17.433Z,967.19
2016-06-21T04:47:17.447Z,967.16
2016-06-21T04:48:17.451Z,967.16
2016-06-21T04:49:17.470Z,967.13
2016-06-21T04:50:17.472Z,967.15
2016-06-21T04:51:17.483Z,967.14
2016-06-21T04:52:17.494Z,967.14
2016-06-21T04:53:17.506Z,967.12
2016-06-21T04:54:17.517Z,967.17
2016-06-21T04:55:17.526Z,967.15
2016-06-21T04:56:17.536Z,967.19
2016-06-21T04:57:17.541Z,967.18
2016-06-21T04:58:17.557Z,967.15
2016-06-21T04:59:17.564Z,967.15
2016-06-21T05:00:17.577Z,967.18
2016-06-21T05:01:17.584Z,967.21
2016-06-21T05:02:17.595Z,967.22
2016-06-21T05:03:17.605Z,967.24
2016-06-21T05:04:17.611Z,967.21
2016-06-21T05:05:17.622Z,967.23
2016-06-21T05:06:17.633Z,967.16
2016-06-21T05:07:17.646Z,967.16
2016-06-21T05:08:17.657Z,967.14
2016-06-21T05:09:17.670Z,967.16
2016-06-21T05:10:17.683Z,967.17
2016-06-21T05:11:17.686Z,967.2
2016-06-21T05:12:17.698Z,967.19
2016-06-21T05:13:17.703Z,967.17
2016-06-21T05:14:17.718Z,967.22
2016-06-21T05:15:17.726Z,967.24
2016-06-21T05:16:17.731Z,967.23
2016-06-21T05:17:17.746Z,967.25
2016-06-21T05:18:17.758Z,967.25
2016-06-21T05:19:17.766Z,967.27
2016-06-21T05:20:17.775Z,967.31
2016-06-21T05:21:17.787Z,967.3
2016-06-21T05:22:17.797Z,967.33
2016-06-21T05:23:17.816Z,967.37
2016-06-21T05:24:17.817Z,967.33
2016-06-21T05:25:17.827Z,967.33
2016-06-21T05:26:17.837Z,967.36
2016-06-21T05:27:17.851Z,967.37
2016-06-21T05:28:17.859Z,967.37
2016-06-21T05:29:17.867Z,967.41
2016-06-21T05:30:17.877Z,967.39
2016-06-21T05:31:17.888Z,967.42
2016-06-21T05:32:17.895Z,967.43
2016-06-21T05:33:17.905Z,967.46
2016-06-21T05:34:17.923Z,967.47
2016-06-21T05:35:17.930Z,967.47
2016-06-21T05:36:17.941Z,967.49
2016-06-21T05:37:17.948Z,967.45
2016-06-21T05:38:17.961Z,967.52
2016-06-21T05:39:17.969Z,967.48
2016-06-21T05:40:17.982Z,967.5
2016-06-21T05:41:18.014Z,967.48
2016-06-21T05:42:18.006Z,967.45
2016-06-21T05:43:18.017Z,967.46
2016-06-21T05:44:18.016Z,967.45
2016-06-21T05:45:18.028Z,967.47
2016-06-21T05:46:18.039Z,967.42
2016-06-21T05:47:18.048Z,967.39
2016-06-21T05:48:18.054Z,967.39
2016-06-21T05:49:18.068Z,967.37
2016-06-21T05:50:18.081Z,967.38
2016-06-21T05:51:18.093Z,967.38
2016-06-21T05:52:18.101Z,967.39
2016-06-21T05:53:18.111Z,967.42
2016-06-21T05:54:18.125Z,967.4
2016-06-21T05:55:18.133Z,967.4
2016-06-21T05:56:18.138Z,967.41
2016-06-21T05:57:18.157Z,967.39
2016-06-21T05:58:18.159Z,967.37
2016-06-21T05:59:18.169Z,967.35
2016-06-21T06:00:18.182Z,967.36
2016-06-21T06:01:18.194Z,967.35
2016-06-21T06:02:18.201Z,967.34
2016-06-21T06:03:18.215Z,967.39
2016-06-21T06:04:18.218Z,967.44
2016-06-21T06:05:18.229Z,967.43
2016-06-21T06:06:18.245Z,967.43
2016-06-21T06:07:18.250Z,967.48
2016-06-21T06:08:18.317Z,967.44
2016-06-21T06:09:18.276Z,967.47
2016-06-21T06:10:18.284Z,967.44
2016-06-21T06:11:18.292Z,967.46
2016-06-21T06:12:18.310Z,967.49
2016-06-21T06:13:18.317Z,967.48
2016-06-21T06:14:18.326Z,967.48
2016-06-21T06:15:18.341Z,967.49
2016-06-21T06:16:18.342Z,967.53
2016-06-21T06:17:18.357Z,967.53
2016-06-21T06:18:18.367Z,967.53
2016-06-21T06:19:18.377Z,967.52
2016-06-21T06:20:18.389Z,967.54
2016-06-21T06:21:18.400Z,967.54
2016-06-21T06:22:18.419Z,967.56
2016-06-21T06:23:18.419Z,967.58
2016-06-21T06:24:18.440Z,967.59
2016-06-21T06:25:18.445Z,967.6
2016-06-21T06:26:18.448Z,967.6
2016-06-21T06:27:18.455Z,967.61
2016-06-21T06:28:18.466Z,967.62
2016-06-21T06:29:18.481Z,967.62
2016-06-21T06:30:18.485Z,967.59
2016-06-21T06:31:18.496Z,967.58
2016-06-21T06:32:18.503Z,967.61
2016-06-21T06:33:18.522Z,967.62
2016-06-21T06:34:18.523Z,967.6
2016-06-21T06:35:18.537Z,967.58
2016-06-21T06:36:18.543Z,967.59
2016-06-21T06:37:18.558Z,967.63
2016-06-21T06:38:18.571Z,967.62
2016-06-21T06:39:18.579Z,967.59
2016-06-21T06:40:18.589Z,967.59
2016-06-21T06:41:18.603Z,967.59
2016-06-21T06:42:18.609Z,967.64
2016-06-21T06:43:18.615Z,967.66
2016-06-21T06:44:18.630Z,967.67
2016-06-21T06:45:18.637Z,967.64
2016-06-21T06:46:18.644Z,967.7
2016-06-21T06:47:18.662Z,967.69
2016-06-21T06:48:18.666Z,967.71
2016-06-21T06:49:18.681Z,967.71
2016-06-21T06:50:18.688Z,967.73
2016-06-21T06:51:18.701Z,967.7
2016-06-21T06:52:18.714Z,967.7
2016-06-21T06:53:18.719Z,967.75
2016-06-21T06:54:18.731Z,967.7
2016-06-21T06:55:18.738Z,967.71
2016-06-21T06:56:18.752Z,967.78
2016-06-21T06:57:18.758Z,967.77
2016-06-21T06:58:18.777Z,967.78
2016-06-21T06:59:18.782Z,967.78
2016-06-21T07:00:18.790Z,967.79
2016-06-21T07:01:18.802Z,967.77
2016-06-21T07:02:18.805Z,967.81
2016-06-21T07:03:18.820Z,967.77
2016-06-21T07:04:18.832Z,967.86
2016-06-21T07:05:18.839Z,967.86
2016-06-21T07:06:18.848Z,967.88
2016-06-21T07:07:18.867Z,967.85
2016-06-21T07:08:18.871Z,967.86
2016-06-21T07:09:18.883Z,967.82
2016-06-21T07:10:18.891Z,967.89
2016-06-21T07:11:18.900Z,967.91
2016-06-21T07:12:18.909Z,967.96
2016-06-21T07:13:18.921Z,967.86
2016-06-21T07:14:18.933Z,967.88
2016-06-21T07:15:18.942Z,967.88
2016-06-21T07:16:18.955Z,967.92
2016-06-21T07:17:18.962Z,967.94
2016-06-21T07:18:18.972Z,967.89
2016-06-21T07:19:18.977Z,967.86
2016-06-21T07:20:18.990Z,967.9
2016-06-21T07:21:19.000Z,967.91
2016-06-21T07:22:19.010Z,967.83
2016-06-21T07:23:19.025Z,967.86
2016-06-21T07:24:19.028Z,967.87
2016-06-21T07:25:19.044Z,967.86
2016-06-21T07:26:19.051Z,967.86
2016-06-21T07:27:19.064Z,967.87
2016-06-21T07:28:19.078Z,967.81
2016-06-21T07:29:19.083Z,967.85
2016-06-21T07:30:19.095Z,967.87
2016-06-21T07:31:19.106Z,967.87
2016-06-21T07:32:19.120Z,967.89
2016-06-21T07:33:19.124Z,967.9
2016-06-21T07:34:19.131Z,967.88
2016-06-21T07:35:19.138Z,967.9
2016-06-21T07:36:19.155Z,967.91
2016-06-21T07:37:19.170Z,967.84
2016-06-21T07:38:19.176Z,967.9
2016-06-21T07:39:19.189Z,967.88
2016-06-21T07:40:19.199Z,967.91
2016-06-21T07:41:19.210Z,967.88
2016-06-21T07:42:19.220Z,967.87
2016-06-21T07:43:19.238Z,967.87
2016-06-21T07:44:19.244Z,967.84
2016-06-21T07:45:19.258Z,967.86
2016-06-21T07:46:19.262Z,967.86
2016-06-21T07:47:19.271Z,967.86
2016-06-21T07:48:19.281Z,967.89
2016-06-21T07:49:19.286Z,967.85
2016-06-21T07:50:19.302Z,967.84
2016-06-21T07:51:19.309Z,967.89
2016-06-21T07:52:19.317Z,967.89
2016-06-21T07:53:19.330Z,967.87
2016-06-21T07:54:19.333Z,967.85
2016-06-21T07:55:19.343Z,967.92
2016-06-21T07:56:19.363Z,967.93
2016-06-21T07:57:19.371Z,967.93
2016-06-21T07:58:19.379Z,967.95
2016-06-21T07:59:19.397Z,967.96
2016-06-21T08:00:19.397Z,967.92
2016-06-21T08:01:19.410Z,967.91
2016-06-21T08:02:19.418Z,967.88
2016-06-21T08:03:19.441Z,967.89
2016-06-21T08:04:19.442Z,967.84
2016-06-21T08:05:19.453Z,967.87
2016-06-21T08:06:19.455Z,967.88
2016-06-21T08:07:19.473Z,967.88
2016-06-21T08:08:19.479Z,967.84
2016-06-21T08:09:19.491Z,967.86
2016-06-21T08:10:19.506Z,967.85
2016-06-21T08:11:19.511Z,967.9
2016-06-21T08:12:19.524Z,967.84
2016-06-21T08:13:19.533Z,967.87
2016-06-21T08:14:19.542Z,967.87
2016-06-21T08:15:19.555Z,967.88
2016-06-21T08:16:19.566Z,967.89
2016-06-21T08:17:19.576Z,967.91
2016-06-21T08:18:19.594Z,967.93
2016-06-21T08:19:19.596Z,967.88
2016-06-21T08:20:19.605Z,967.85
2016-06-21T08:21:19.617Z,967.84
2016-06-21T08:22:19.629Z,967.85
2016-06-21T08:23:19.636Z,967.85
2016-06-21T08:24:19.645Z,967.86
2016-06-21T08:25:19.657Z,967.85
2016-06-21T08:26:19.665Z,967.85
2016-06-21T08:27:19.679Z,967.88
2016-06-21T08:28:19.693Z,967.85
2016-06-21T08:29:19.706Z,967.87
2016-06-21T08:30:19.714Z,967.9
2016-06-21T08:31:19.720Z,967.91
2016-06-21T08:32:19.728Z,967.92
2016-06-21T08:33:19.741Z,967.93
2016-06-21T08:34:19.747Z,967.95
2016-06-21T08:35:19.760Z,967.94
2016-06-21T08:36:19.775Z,967.95
2016-06-21T08:37:19.786Z,967.94
2016-06-21T08:38:19.796Z,967.98
2016-06-21T08:39:19.805Z,967.98
2016-06-21T08:40:19.814Z,967.97
2016-06-21T08:41:19.827Z,967.97
2016-06-21T08:42:19.840Z,967.96
2016-06-21T08:43:19.843Z,967.96
2016-06-21T08:44:19.857Z,967.93
2016-06-21T08:45:19.867Z,967.99
2016-06-21T08:46:19.874Z,967.99
2016-06-21T08:47:19.887Z,968.01
2016-06-21T08:48:19.905Z,967.97
2016-06-21T08:49:19.913Z,968
2016-06-21T08:50:19.918Z,967.99
2016-06-21T08:51:19.929Z,967.96
2016-06-21T08:52:19.943Z,967.97
2016-06-21T08:53:19.950Z,967.96
2016-06-21T08:54:19.957Z,967.95
2016-06-21T08:55:19.973Z,967.94
2016-06-21T08:56:19.983Z,967.97
2016-06-21T08:57:19.988Z,967.93
2016-06-21T08:58:19.999Z,967.98
2016-06-21T08:59:20.012Z,967.99
2016-06-21T09:00:20.020Z,967.96
2016-06-21T09:01:20.032Z,967.99
2016-06-21T09:02:20.044Z,967.98
2016-06-21T09:03:20.054Z,967.98
2016-06-21T09:04:20.059Z,968
2016-06-21T09:05:20.088Z,968
2016-06-21T09:06:20.079Z,968.08
2016-06-21T09:07:20.093Z,968.05
2016-06-21T09:08:20.104Z,968.02
2016-06-21T09:09:20.111Z,968.05
2016-06-21T09:10:20.128Z,968.1
2016-06-21T09:11:20.135Z,968.08
2016-06-21T09:12:20.138Z,968.1
2016-06-21T09:13:20.157Z,968.12
2016-06-21T09:14:20.169Z,968.14
2016-06-21T09:15:20.174Z,968.1
2016-06-21T09:16:20.185Z,968.13
2016-06-21T09:17:20.205Z,968.13
2016-06-21T09:18:20.209Z,968.13
2016-06-21T09:19:20.217Z,968.14
2016-06-21T09:20:20.229Z,968.15
2016-06-21T09:21:20.239Z,968.16
2016-06-21T09:22:20.252Z,968.21
2016-06-21T09:23:20.258Z,968.2
2016-06-21T09:24:20.265Z,968.22
2016-06-21T09:25:20.299Z,968.25
2016-06-21T09:26:20.293Z,968.24
2016-06-21T09:27:20.302Z,968.26
2016-06-21T09:28:20.311Z,968.22
2016-06-21T09:29:20.320Z,968.27
2016-06-21T09:30:20.331Z,968.28
2016-06-21T09:31:20.340Z,968.28
2016-06-21T09:32:20.350Z,968.26
2016-06-21T09:33:20.371Z,968.21
2016-06-21T09:34:20.371Z,968.21
2016-06-21T09:35:20.382Z,968.17
2016-06-21T09:36:20.393Z,968.17
2016-06-21T09:37:20.402Z,968.17
2016-06-21T09:38:20.411Z,968.2
2016-06-21T09:39:20.419Z,968.17
2016-06-21T09:40:20.439Z,968.23
2016-06-21T09:41:20.444Z,968.27
2016-06-21T09:42:20.452Z,968.28
2016-06-21T09:43:20.474Z,968.3
2016-06-21T09:44:20.473Z,968.29
2016-06-21T09:45:20.490Z,968.3
2016-06-21T09:46:20.495Z,968.33
2016-06-21T09:47:20.509Z,968.31
2016-06-21T09:48:20.520Z,968.33
2016-06-21T09:49:20.524Z,968.35
2016-06-21T09:50:20.531Z,968.35
2016-06-21T09:51:20.543Z,968.29
2016-06-21T09:52:20.554Z,968.34
2016-06-21T09:53:20.570Z,968.36
2016-06-21T09:54:20.576Z,968.36
2016-06-21T09:55:20.585Z,968.4
2016-06-21T09:56:20.598Z,968.37
2016-06-21T09:57:20.607Z,968.42
2016-06-21T09:58:20.631Z,968.43
2016-06-21T09:59:20.625Z,968.43
2016-06-21T10:00:20.638Z,968.38
2016-06-21T10:01:20.651Z,968.4
2016-06-21T10:02:20.662Z,968.39
2016-06-21T10:03:20.682Z,968.39
2016-06-21T10:04:20.695Z,968.39
2016-06-21T10:05:20.694Z,968.34
2016-06-21T10:06:20.693Z,968.38
2016-06-21T10:07:20.717Z,968.38
2016-06-21T10:08:20.721Z,968.37
2016-06-21T10:09:20.733Z,968.37
2016-06-21T10:10:20.742Z,968.34
2016-06-21T10:11:20.749Z,968.32
2016-06-21T10:12:20.769Z,968.31
2016-06-21T10:13:20.780Z,968.4
2016-06-21T10:14:20.782Z,968.4
2016-06-21T10:15:20.794Z,968.44
2016-06-21T10:16:20.810Z,968.42
2016-06-21T10:17:20.819Z,968.4
2016-06-21T10:18:20.826Z,968.45
2016-06-21T10:19:20.837Z,968.46
2016-06-21T10:20:20.852Z,968.45
2016-06-21T10:21:20.861Z,968.45
2016-06-21T10:22:20.871Z,968.45
2016-06-21T10:23:20.870Z,968.41
2016-06-21T10:24:20.888Z,968.46
2016-06-21T10:25:20.906Z,968.4
2016-06-21T10:26:20.947Z,968.4
2016-06-21T10:27:20.931Z,968.43
2016-06-21T10:28:20.928Z,968.43
2016-06-21T10:29:20.933Z,968.45
2016-06-21T10:30:20.955Z,968.45
2016-06-21T10:31:20.953Z,968.43
2016-06-21T10:32:20.975Z,968.44
2016-06-21T10:33:20.986Z,968.43
2016-06-21T10:34:20.994Z,968.48
2016-06-21T10:35:21.008Z,968.46
2016-06-21T10:36:21.021Z,968.5
2016-06-21T10:37:21.015Z,968.52
2016-06-21T10:38:21.025Z,968.49
2016-06-21T10:39:21.038Z,968.51
2016-06-21T10:40:21.051Z,968.5
2016-06-21T10:41:21.060Z,968.51
2016-06-21T10:42:21.070Z,968.51
2016-06-21T10:43:21.085Z,968.5
2016-06-21T10:44:21.094Z,968.55
2016-06-21T10:45:21.102Z,968.51
2016-06-21T10:46:21.117Z,968.5
2016-06-21T10:47:21.121Z,968.57
2016-06-21T10:48:21.128Z,968.53
2016-06-21T10:49:21.138Z,968.58
2016-06-21T10:50:21.150Z,968.57
2016-06-21T10:51:21.163Z,968.58
2016-06-21T10:52:21.169Z,968.57
2016-06-21T10:53:21.190Z,968.57
2016-06-21T10:54:21.190Z,968.57
2016-06-21T10:55:21.202Z,968.57
2016-06-21T10:56:21.211Z,968.58
2016-06-21T10:57:21.224Z,968.58
2016-06-21T10:58:21.236Z,968.55
2016-06-21T10:59:21.243Z,968.59
2016-06-21T11:00:21.257Z,968.55
2016-06-21T11:01:21.265Z,968.57
2016-06-21T11:02:21.274Z,968.56
2016-06-21T11:03:21.283Z,968.57
2016-06-21T11:04:21.295Z,968.53
2016-06-21T11:05:21.315Z,968.58
2016-06-21T11:06:21.318Z,968.55
2016-06-21T11:07:21.331Z,968.55
2016-06-21T11:08:21.332Z,968.53
2016-06-21T11:09:21.352Z,968.56
2016-06-21T11:10:21.354Z,968.53
2016-06-21T11:11:21.365Z,968.53
2016-06-21T11:12:21.377Z,968.55
2016-06-21T11:13:21.393Z,968.53
2016-06-21T11:14:21.401Z,968.49
2016-06-21T11:15:21.409Z,968.56
2016-06-21T11:16:21.417Z,968.54
2016-06-21T11:17:21.434Z,968.56
2016-06-21T11:18:21.442Z,968.57
2016-06-21T11:19:21.453Z,968.55
2016-06-21T11:20:21.462Z,968.57
2016-06-21T11:21:21.483Z,968.59
2016-06-21T11:22:21.482Z,968.56
2016-06-21T11:23:21.493Z,968.57
2016-06-21T11:24:21.499Z,968.57
2016-06-21T11:25:21.513Z,968.52
2016-06-21T11:26:21.519Z,968.53
2016-06-21T11:27:21.527Z,968.53
2016-06-21T11:28:21.539Z,968.5
2016-06-21T11:29:21.549Z,968.52
2016-06-21T11:30:21.569Z,968.5
2016-06-21T11:31:21.570Z,968.47
2016-06-21T11:32:21.580Z,968.45
2016-06-21T11:33:21.590Z,968.48
2016-06-21T11:34:21.600Z,968.46
2016-06-21T11:35:21.607Z,968.45
2016-06-21T11:36:21.626Z,968.39
2016-06-21T11:37:21.631Z,968.43
2016-06-21T11:38:21.640Z,968.37
2016-06-21T11:39:21.649Z,968.34
2016-06-21T11:40:21.662Z,968.33
2016-06-21T11:41:21.669Z,968.31
2016-06-21T11:42:21.680Z,968.34
2016-06-21T11:43:21.693Z,968.35
2016-06-21T11:44:21.699Z,968.32
2016-06-21T11:45:21.710Z,968.35
2016-06-21T11:46:21.716Z,968.32
2016-06-21T11:47:21.730Z,968.32
2016-06-21T11:48:21.737Z,968.32
2016-06-21T11:49:21.749Z,968.33
2016-06-21T11:50:21.764Z,968.34
2016-06-21T11:51:21.777Z,968.33
2016-06-21T11:52:21.774Z,968.34
2016-06-21T11:53:21.790Z,968.3
2016-06-21T11:54:21.800Z,968.34
2016-06-21T11:55:21.811Z,968.34
2016-06-21T11:56:21.821Z,968.32
2016-06-21T11:57:21.826Z,968.36
2016-06-21T11:58:21.838Z,968.38
2016-06-21T11:59:21.849Z,968.3
2016-06-21T12:00:21.859Z,968.32
2016-06-21T12:01:21.873Z,968.31
2016-06-21T12:02:21.883Z,968.32
2016-06-21T12:03:21.895Z,968.32
2016-06-21T12:04:21.904Z,968.28
2016-06-21T12:05:21.909Z,968.34
2016-06-21T12:06:21.919Z,968.28
2016-06-21T12:07:21.937Z,968.3
2016-06-21T12:08:21.938Z,968.3
2016-06-21T12:09:21.963Z,968.3
2016-06-21T12:10:21.965Z,968.26
2016-06-21T12:11:21.979Z,968.28
2016-06-21T12:12:21.980Z,968.3
2016-06-21T12:13:21.995Z,968.32
2016-06-21T12:14:21.998Z,968.37
2016-06-21T12:15:22.014Z,968.32
2016-06-21T12:16:22.029Z,968.3
2016-06-21T12:17:22.031Z,968.31
2016-06-21T12:18:22.046Z,968.34
2016-06-21T12:19:22.053Z,968.33
2016-06-21T12:20:22.065Z,968.33
2016-06-21T12:21:22.071Z,968.37
2016-06-21T12:22:22.075Z,968.36
2016-06-21T12:23:22.095Z,968.35
2016-06-21T12:24:22.099Z,968.34
2016-06-21T12:25:22.114Z,968.33
2016-06-21T12:26:22.124Z,968.28
2016-06-21T12:27:22.135Z,968.23
2016-06-21T12:28:22.139Z,968.21
2016-06-21T12:29:22.154Z,968.27
2016-06-21T12:30:22.159Z,968.25